createdAt,value
2018-08-22T00:00:31.686Z,25.20
2018-08-22T00:01:33.913Z,25.30
2018-08-22T00:02:36.079Z,25.30
2018-08-22T00:03:38.242Z,25.20
2018-08-22T00:04:40.409Z,25.20
2018-08-22T00:05:42.620Z,25.20
2018-08-22T00:06:44.845Z,25.20
2018-08-22T00:07:47.021Z,25.20
2018-08-22T00:08:49.200Z,25.20
2018-08-22T00:09:51.362Z,25.20
2018-08-22T00:10:53.595Z,25.10
2018-08-22T00:11:55.805Z,25.10
2018-08-22T00:12:58.070Z,25.10
2018-08-22T00:14:00.238Z,25.10
2018-08-22T00:15:02.497Z,25.10
2018-08-22T00:16:04.670Z,25.10
2018-08-22T00:17:06.879Z,25.10
2018-08-22T00:18:09.058Z,25.00
2018-08-22T00:19:11.225Z,25.00
2018-08-22T00:20:13.400Z,25.00
2018-08-22T00:21:15.605Z,25.00
2018-08-22T00:22:18.662Z,25.00
2018-08-22T00:23:21.045Z,25.00
2018-08-22T00:24:23.226Z,25.10
2018-08-22T00:25:25.462Z,24.90
2018-08-22T00:26:27.638Z,24.90
2018-08-22T00:27:29.845Z,24.90
2018-08-22T00:28:32.085Z,24.90
2018-08-22T00:29:34.337Z,24.90
2018-08-22T00:30:36.514Z,24.90
2018-08-22T00:31:38.685Z,24.90
2018-08-22T00:32:40.868Z,24.90
2018-08-22T00:33:43.052Z,24.90
2018-08-22T00:34:45.221Z,24.90
2018-08-22T00:35:47.393Z,24.80
2018-08-22T00:36:49.569Z,24.90
2018-08-22T00:37:51.761Z,24.80
2018-08-22T00:38:53.933Z,24.80
2018-08-22T00:39:56.120Z,24.80
2018-08-22T00:40:58.348Z,24.70
2018-08-22T00:42:00.508Z,24.80
2018-08-22T00:43:02.696Z,24.80
2018-08-22T00:44:04.900Z,24.70
2018-08-22T00:45:07.097Z,24.70
2018-08-22T00:46:09.281Z,24.70
2018-08-22T00:47:11.466Z,24.70
2018-08-22T00:48:13.653Z,24.60
2018-08-22T00:49:15.820Z,24.60
2018-08-22T00:50:18.001Z,24.70
2018-08-22T00:51:20.177Z,24.60
2018-08-22T00:52:22.406Z,24.60
2018-08-22T00:53:24.601Z,24.50
2018-08-22T00:54:26.764Z,24.50
2018-08-22T00:55:28.956Z,24.50
2018-08-22T00:56:31.126Z,24.50
2018-08-22T00:57:33.333Z,24.50
2018-08-22T00:58:35.497Z,24.50
2018-08-22T00:59:37.790Z,24.50
2018-08-22T01:00:39.958Z,24.50
2018-08-22T01:01:42.145Z,24.50
2018-08-22T01:02:44.323Z,24.40
2018-08-22T01:03:46.506Z,24.40
2018-08-22T01:04:48.677Z,24.40
2018-08-22T01:05:50.846Z,24.40
2018-08-22T01:06:53.014Z,24.40
2018-08-22T01:07:55.193Z,24.40
2018-08-22T01:08:57.384Z,24.40
2018-08-22T01:09:59.552Z,24.30
2018-08-22T01:11:01.713Z,24.30
2018-08-22T01:12:03.897Z,24.20
2018-08-22T01:13:06.131Z,24.30
2018-08-22T01:14:08.304Z,24.30
2018-08-22T01:15:10.477Z,24.30
2018-08-22T01:16:12.673Z,24.30
2018-08-22T01:17:14.849Z,24.30
2018-08-22T01:18:17.015Z,24.30
2018-08-22T01:19:19.192Z,24.20
2018-08-22T01:20:21.361Z,24.20
2018-08-22T01:21:23.602Z,24.20
2018-08-22T01:22:25.793Z,24.20
2018-08-22T01:23:28.124Z,24.20
2018-08-22T01:24:30.321Z,24.20
2018-08-22T01:25:32.494Z,24.20
2018-08-22T01:26:34.693Z,24.20
2018-08-22T01:27:41.485Z,24.20
2018-08-22T01:28:43.692Z,24.20
2018-08-22T01:29:45.857Z,24.20
2018-08-22T01:30:48.050Z,24.30
2018-08-22T01:31:50.241Z,24.20
2018-08-22T01:32:52.398Z,24.20
2018-08-22T01:33:54.589Z,24.20
2018-08-22T01:34:56.773Z,24.20
2018-08-22T01:35:58.938Z,24.20
2018-08-22T01:37:01.104Z,24.20
2018-08-22T01:38:03.313Z,24.10
2018-08-22T01:39:06.357Z,24.20
2018-08-22T01:40:08.521Z,24.20
2018-08-22T01:41:10.687Z,24.10
2018-08-22T01:42:12.865Z,24.10
2018-08-22T01:43:15.040Z,24.10
2018-08-22T01:44:17.208Z,24.10
2018-08-22T01:45:19.393Z,24.00
2018-08-22T01:46:21.574Z,24.10
2018-08-22T01:47:23.778Z,24.00
2018-08-22T01:48:25.945Z,24.00
2018-08-22T01:49:28.102Z,23.90
2018-08-22T01:50:30.260Z,23.90
2018-08-22T01:51:32.505Z,23.90
2018-08-22T01:52:34.676Z,23.90
2018-08-22T01:53:36.895Z,23.90
2018-08-22T01:54:39.069Z,23.90
2018-08-22T01:55:41.267Z,23.90
2018-08-22T01:56:43.449Z,23.90
2018-08-22T01:57:45.653Z,23.90
2018-08-22T01:58:47.918Z,23.90
2018-08-22T01:59:50.078Z,23.80
2018-08-22T02:00:52.278Z,23.80
2018-08-22T02:01:54.494Z,23.80
2018-08-22T02:02:56.706Z,23.80
2018-08-22T02:03:58.865Z,23.70
2018-08-22T02:05:01.061Z,23.70
2018-08-22T02:06:03.247Z,23.70
2018-08-22T02:07:05.422Z,23.70
2018-08-22T02:08:07.621Z,23.70
2018-08-22T02:09:11.028Z,23.70
2018-08-22T02:10:13.191Z,23.70
2018-08-22T02:11:15.365Z,23.60
2018-08-22T02:12:17.541Z,23.60
2018-08-22T02:13:19.710Z,23.60
2018-08-22T02:14:21.886Z,23.60
2018-08-22T02:15:24.060Z,23.50
2018-08-22T02:16:26.221Z,23.50
2018-08-22T02:17:28.539Z,23.50
2018-08-22T02:18:30.706Z,23.50
2018-08-22T02:19:32.888Z,23.50
2018-08-22T02:20:35.081Z,23.50
2018-08-22T02:21:37.450Z,23.50
2018-08-22T02:22:39.662Z,23.50
2018-08-22T02:23:41.853Z,23.40
2018-08-22T02:24:44.036Z,23.50
2018-08-22T02:25:46.193Z,23.50
2018-08-22T02:26:48.380Z,23.40
2018-08-22T02:27:50.566Z,23.50
2018-08-22T02:28:52.734Z,23.50
2018-08-22T02:29:54.929Z,23.40
2018-08-22T02:30:57.117Z,23.40
2018-08-22T02:31:59.325Z,23.40
2018-08-22T02:33:01.570Z,23.40
2018-08-22T02:34:03.982Z,23.40
2018-08-22T02:35:06.205Z,23.40
2018-08-22T02:36:08.372Z,23.40
2018-08-22T02:37:10.607Z,23.40
2018-08-22T02:38:17.402Z,23.40
2018-08-22T02:39:19.585Z,23.40
2018-08-22T02:40:21.776Z,23.40
2018-08-22T02:41:23.992Z,23.40
2018-08-22T02:42:26.163Z,23.40
2018-08-22T02:43:28.329Z,23.30
2018-08-22T02:44:30.525Z,23.30
2018-08-22T02:45:32.690Z,23.30
2018-08-22T02:46:34.866Z,23.30
2018-08-22T02:47:37.037Z,23.30
2018-08-22T02:48:44.857Z,23.30
2018-08-22T02:49:47.049Z,23.30
2018-08-22T02:50:49.283Z,23.30
2018-08-22T02:51:51.470Z,23.30
2018-08-22T02:52:53.657Z,23.30
2018-08-22T02:53:55.826Z,23.40
2018-08-22T02:54:58.014Z,23.30
2018-08-22T02:56:00.222Z,23.30
2018-08-22T02:57:02.387Z,23.30
2018-08-22T02:58:04.565Z,23.30
2018-08-22T02:59:06.752Z,23.30
2018-08-22T03:00:08.934Z,23.30
2018-08-22T03:01:11.117Z,23.30
2018-08-22T03:02:13.300Z,23.30
2018-08-22T03:03:15.459Z,23.20
2018-08-22T03:04:17.633Z,23.30
2018-08-22T03:05:19.821Z,23.30
2018-08-22T03:06:22.029Z,23.30
2018-08-22T03:07:24.203Z,23.20
2018-08-22T03:08:26.387Z,23.20
2018-08-22T03:09:28.556Z,23.20
2018-08-22T03:10:30.773Z,23.20
2018-08-22T03:11:32.966Z,23.20
2018-08-22T03:12:35.141Z,23.20
2018-08-22T03:13:37.313Z,23.20
2018-08-22T03:14:39.478Z,23.20
2018-08-22T03:15:41.657Z,23.10
2018-08-22T03:16:43.832Z,23.20
2018-08-22T03:17:45.996Z,23.10
2018-08-22T03:18:48.172Z,23.10
2018-08-22T03:19:50.326Z,23.10
2018-08-22T03:20:52.537Z,23.20
2018-08-22T03:21:54.721Z,23.10
2018-08-22T03:22:56.909Z,23.10
2018-08-22T03:23:59.087Z,23.10
2018-08-22T03:25:01.278Z,23.10
2018-08-22T03:26:03.526Z,23.10
2018-08-22T03:27:05.797Z,23.10
2018-08-22T03:28:08.005Z,23.10
2018-08-22T03:29:10.174Z,23.10
2018-08-22T03:30:12.370Z,23.00
2018-08-22T03:31:14.553Z,23.00
2018-08-22T03:32:16.713Z,23.00
2018-08-22T03:33:18.897Z,22.90
2018-08-22T03:34:21.088Z,22.80
2018-08-22T03:35:23.291Z,22.80
2018-08-22T03:36:25.470Z,22.80
2018-08-22T03:37:27.635Z,22.80
2018-08-22T03:38:29.825Z,22.80
2018-08-22T03:39:32.014Z,22.80
2018-08-22T03:40:34.192Z,22.80
2018-08-22T03:41:36.365Z,22.80
2018-08-22T03:42:38.554Z,22.80
2018-08-22T03:43:40.720Z,22.80
2018-08-22T03:44:42.890Z,22.80
2018-08-22T03:45:45.093Z,22.80
2018-08-22T03:46:47.252Z,22.80
2018-08-22T03:47:49.421Z,22.80
2018-08-22T03:48:51.602Z,22.70
2018-08-22T03:49:53.787Z,22.70
2018-08-22T03:50:55.965Z,22.70
2018-08-22T03:51:58.122Z,22.70
2018-08-22T03:53:00.306Z,22.70
2018-08-22T03:54:02.549Z,22.70
2018-08-22T03:55:04.821Z,22.70
2018-08-22T03:56:07.002Z,22.70
2018-08-22T03:57:09.181Z,22.70
2018-08-22T03:58:11.414Z,22.80
2018-08-22T03:59:13.604Z,22.60
2018-08-22T04:00:15.779Z,22.60
2018-08-22T04:01:17.957Z,22.70
2018-08-22T04:02:20.143Z,22.60
2018-08-22T04:03:22.321Z,22.60
2018-08-22T04:04:24.535Z,22.50
2018-08-22T04:05:26.716Z,22.50
2018-08-22T04:06:28.885Z,22.50
2018-08-22T04:07:31.069Z,22.50
2018-08-22T04:08:33.243Z,22.50
2018-08-22T04:09:35.414Z,22.50
2018-08-22T04:10:37.610Z,22.50
2018-08-22T04:11:39.786Z,22.50
2018-08-22T04:12:41.968Z,22.50
2018-08-22T04:13:44.134Z,22.50
2018-08-22T04:14:46.317Z,22.50
2018-08-22T04:15:48.489Z,22.40
2018-08-22T04:16:50.682Z,22.40
2018-08-22T04:17:52.858Z,22.40
2018-08-22T04:18:55.049Z,22.40
2018-08-22T04:19:57.232Z,22.40
2018-08-22T04:20:59.416Z,22.40
2018-08-22T04:22:01.597Z,22.40
2018-08-22T04:23:03.907Z,22.40
2018-08-22T04:24:06.129Z,22.40
2018-08-22T04:25:08.817Z,22.40
2018-08-22T04:26:11.034Z,22.40
2018-08-22T04:27:13.230Z,22.40
2018-08-22T04:28:15.417Z,22.40
2018-08-22T04:29:17.824Z,22.40
2018-08-22T04:30:20.145Z,22.40
2018-08-22T04:31:23.185Z,22.40
2018-08-22T04:32:25.499Z,22.40
2018-08-22T04:33:27.713Z,22.30
2018-08-22T04:34:30.406Z,22.30
2018-08-22T04:35:32.978Z,22.30
2018-08-22T04:36:36.101Z,22.30
2018-08-22T04:37:38.325Z,22.30
2018-08-22T04:38:41.366Z,22.30
2018-08-22T04:39:44.293Z,22.20
2018-08-22T04:40:48.913Z,22.20
2018-08-22T04:41:55.015Z,22.20
2018-08-22T04:42:57.199Z,22.10
2018-08-22T04:44:00.278Z,22.10
2018-08-22T04:45:07.218Z,22.10
2018-08-22T04:46:09.773Z,22.00
2018-08-22T04:47:12.625Z,22.10
2018-08-22T04:48:15.235Z,22.10
2018-08-22T04:49:17.434Z,22.10
2018-08-22T04:50:19.679Z,22.20
2018-08-22T04:51:21.905Z,22.10
2018-08-22T04:52:24.134Z,22.10
2018-08-22T04:53:26.378Z,22.10
2018-08-22T04:54:28.653Z,22.10
2018-08-22T04:55:30.913Z,22.10
2018-08-22T04:56:33.246Z,22.20
2018-08-22T04:57:35.517Z,22.10
2018-08-22T04:58:37.709Z,22.20
2018-08-22T05:00:48.846Z,22.10
2018-08-22T05:01:51.050Z,22.10
2018-08-22T05:02:53.293Z,22.10
2018-08-22T05:03:55.487Z,22.20
2018-08-22T05:04:57.713Z,22.20
2018-08-22T05:05:59.959Z,22.20
2018-08-22T05:07:02.114Z,22.20
2018-08-22T05:08:04.386Z,22.20
2018-08-22T05:09:07.309Z,22.20
2018-08-22T05:10:09.546Z,22.20
2018-08-22T05:11:11.746Z,22.30
2018-08-22T05:12:13.943Z,22.30
2018-08-22T05:13:16.166Z,22.30
2018-08-22T05:14:18.478Z,22.30
2018-08-22T05:15:20.682Z,22.30
2018-08-22T05:16:22.873Z,22.30
2018-08-22T05:17:25.077Z,22.30
2018-08-22T05:18:27.257Z,22.30
2018-08-22T05:19:29.454Z,22.30
2018-08-22T05:20:31.693Z,22.30
2018-08-22T05:21:33.912Z,22.30
2018-08-22T05:22:36.113Z,22.40
2018-08-22T05:23:38.297Z,22.40
2018-08-22T05:24:40.511Z,22.40
2018-08-22T05:25:42.702Z,22.40
2018-08-22T05:26:44.909Z,22.40
2018-08-22T05:27:47.120Z,22.40
2018-08-22T05:28:49.309Z,22.40
2018-08-22T05:29:51.511Z,22.50
2018-08-22T05:30:53.702Z,22.40
2018-08-22T05:31:57.613Z,22.40
2018-08-22T05:32:59.834Z,22.50
2018-08-22T05:34:02.001Z,22.60
2018-08-22T05:35:04.455Z,22.60
2018-08-22T05:36:06.650Z,22.60
2018-08-22T05:37:08.859Z,22.60
2018-08-22T05:38:11.092Z,22.70
2018-08-22T05:39:13.751Z,22.70
2018-08-22T05:40:15.968Z,22.80
2018-08-22T05:41:18.260Z,22.90
2018-08-22T05:42:20.462Z,22.90
2018-08-22T05:43:22.673Z,23.00
2018-08-22T05:44:24.855Z,23.00
2018-08-22T05:45:27.065Z,23.10
2018-08-22T05:46:29.233Z,23.10
2018-08-22T05:47:31.445Z,23.20
2018-08-22T05:48:33.646Z,23.20
2018-08-22T05:49:35.818Z,23.20
2018-08-22T05:50:38.010Z,23.30
2018-08-22T05:51:40.241Z,23.30
2018-08-22T05:52:42.426Z,23.40
2018-08-22T05:53:44.649Z,23.40
2018-08-22T05:54:46.946Z,23.50
2018-08-22T05:55:49.211Z,23.50
2018-08-22T05:56:51.446Z,23.50
2018-08-22T05:57:53.679Z,23.50
2018-08-22T05:58:55.871Z,23.60
2018-08-22T05:59:58.036Z,23.60
2018-08-22T06:01:00.213Z,23.60
2018-08-22T06:02:02.414Z,23.70
2018-08-22T06:03:04.593Z,23.80
2018-08-22T06:04:06.771Z,23.70
2018-08-22T06:05:08.966Z,23.80
2018-08-22T06:06:11.240Z,23.80
2018-08-22T06:07:13.416Z,23.80
2018-08-22T06:08:15.605Z,23.80
2018-08-22T06:09:17.800Z,23.80
2018-08-22T06:10:20.065Z,23.90
2018-08-22T06:11:22.245Z,23.90
2018-08-22T06:12:24.538Z,23.90
2018-08-22T06:13:26.723Z,23.90
2018-08-22T06:14:28.913Z,24.00
2018-08-22T06:15:31.116Z,24.00
2018-08-22T06:16:33.282Z,24.00
2018-08-22T06:17:35.513Z,24.00
2018-08-22T06:18:37.741Z,24.00
2018-08-22T06:19:39.912Z,24.00
2018-08-22T06:20:42.107Z,24.00
2018-08-22T06:21:44.262Z,24.00
2018-08-22T06:22:46.432Z,24.10
2018-08-22T06:23:48.617Z,24.10
2018-08-22T06:24:50.779Z,24.10
2018-08-22T06:25:52.973Z,24.10
2018-08-22T06:26:55.142Z,24.10
2018-08-22T06:27:57.375Z,24.10
2018-08-22T06:28:59.553Z,24.10
2018-08-22T06:30:01.734Z,24.10
2018-08-22T06:31:04.005Z,24.10
2018-08-22T06:32:06.166Z,24.10
2018-08-22T06:33:08.399Z,24.20
2018-08-22T06:34:10.573Z,24.20
2018-08-22T06:35:12.749Z,24.20
2018-08-22T06:36:14.938Z,24.20
2018-08-22T06:37:17.733Z,24.20
2018-08-22T06:38:19.887Z,24.20
2018-08-22T06:39:22.067Z,24.20
2018-08-22T06:40:24.240Z,24.10
2018-08-22T06:41:26.411Z,24.10
2018-08-22T06:42:28.569Z,24.10
2018-08-22T06:43:30.736Z,24.00
2018-08-22T06:44:33.002Z,24.00
2018-08-22T06:45:35.178Z,24.00
2018-08-22T06:46:37.347Z,23.90
2018-08-22T06:47:39.505Z,23.90
2018-08-22T06:48:41.690Z,23.90
2018-08-22T06:49:43.901Z,23.90
2018-08-22T06:50:46.089Z,23.90
2018-08-22T06:51:48.242Z,24.00
2018-08-22T06:52:50.450Z,24.00
2018-08-22T06:53:52.633Z,24.00
2018-08-22T06:54:54.837Z,24.00
2018-08-22T06:55:57.026Z,24.10
2018-08-22T06:56:59.220Z,24.10
2018-08-22T06:58:01.385Z,24.10
2018-08-22T06:59:03.589Z,24.10
2018-08-22T07:00:06.020Z,24.10
2018-08-22T07:01:08.222Z,24.10
2018-08-22T07:02:10.401Z,24.10
2018-08-22T07:03:12.578Z,24.10
2018-08-22T07:04:14.857Z,24.10
2018-08-22T07:05:17.049Z,24.10
2018-08-22T07:06:19.196Z,24.10
2018-08-22T07:07:21.357Z,24.20
2018-08-22T07:08:23.533Z,24.20
2018-08-22T07:09:25.705Z,24.20
2018-08-22T07:10:27.898Z,24.30
2018-08-22T07:11:30.062Z,24.30
2018-08-22T07:12:32.279Z,24.30
2018-08-22T07:13:34.433Z,24.40
2018-08-22T07:14:36.673Z,24.40
2018-08-22T07:15:38.878Z,24.50
2018-08-22T07:16:41.050Z,24.50
2018-08-22T07:17:43.228Z,24.60
2018-08-22T07:18:45.395Z,24.60
2018-08-22T07:19:47.581Z,24.60
2018-08-22T07:20:49.796Z,24.60
2018-08-22T07:21:51.945Z,24.60
2018-08-22T07:22:54.108Z,24.80
2018-08-22T07:23:56.269Z,24.70
2018-08-22T07:24:58.468Z,24.70
2018-08-22T07:26:00.638Z,24.70
2018-08-22T07:27:02.805Z,24.80
2018-08-22T07:28:05.502Z,24.80
2018-08-22T07:29:07.668Z,24.80
2018-08-22T07:30:09.908Z,24.90
2018-08-22T07:31:12.153Z,24.90
2018-08-22T07:32:14.333Z,24.90
2018-08-22T07:33:16.492Z,25.00
2018-08-22T07:34:18.734Z,24.90
2018-08-22T07:35:20.893Z,25.00
2018-08-22T07:36:23.101Z,25.10
2018-08-22T07:37:25.306Z,25.10
2018-08-22T07:38:27.477Z,25.10
2018-08-22T07:39:29.680Z,25.10
2018-08-22T07:40:31.899Z,25.20
2018-08-22T07:41:34.061Z,25.20
2018-08-22T07:42:36.220Z,25.20
2018-08-22T07:43:38.401Z,25.20
2018-08-22T07:44:40.594Z,25.30
2018-08-22T07:45:42.933Z,25.30
2018-08-22T07:46:45.130Z,25.40
2018-08-22T07:47:47.313Z,25.40
2018-08-22T07:48:50.129Z,25.50
2018-08-22T07:49:52.318Z,25.50
2018-08-22T07:50:54.521Z,25.50
2018-08-22T07:51:56.685Z,25.50
2018-08-22T07:53:03.610Z,25.50
2018-08-22T07:54:05.773Z,25.50
2018-08-22T07:55:07.962Z,25.60
2018-08-22T07:56:10.158Z,25.70
2018-08-22T07:57:13.788Z,25.70
2018-08-22T07:58:16.021Z,25.80
2018-08-22T07:59:20.137Z,25.80
2018-08-22T08:00:22.393Z,25.80
2018-08-22T08:01:24.597Z,25.80
2018-08-22T08:02:26.761Z,25.90
2018-08-22T08:03:28.942Z,25.90
2018-08-22T08:04:31.117Z,25.90
2018-08-22T08:05:33.403Z,26.00
2018-08-22T08:06:35.821Z,26.00
2018-08-22T08:07:38.117Z,26.00
2018-08-22T08:08:40.583Z,26.10
2018-08-22T08:09:42.832Z,26.00
2018-08-22T08:10:45.112Z,26.10
2018-08-22T08:11:47.520Z,26.20
2018-08-22T08:12:49.847Z,26.20
2018-08-22T08:13:52.086Z,26.20
2018-08-22T08:15:00.030Z,26.30
2018-08-22T08:16:02.417Z,26.30
2018-08-22T08:17:04.802Z,26.30
2018-08-22T08:18:07.070Z,26.30
2018-08-22T08:19:09.320Z,26.30
2018-08-22T08:20:11.697Z,26.40
2018-08-22T08:21:14.006Z,26.40
2018-08-22T08:22:16.566Z,26.50
2018-08-22T08:23:18.965Z,26.50
2018-08-22T08:24:21.379Z,26.50
2018-08-22T08:25:23.682Z,26.50
2018-08-22T08:26:26.035Z,26.60
2018-08-22T08:27:28.329Z,26.70
2018-08-22T08:28:31.105Z,26.70
2018-08-22T08:29:33.373Z,26.70
2018-08-22T08:30:35.685Z,26.80
2018-08-22T08:31:37.918Z,26.80
2018-08-22T08:32:40.239Z,26.90
2018-08-22T08:33:42.445Z,26.90
2018-08-22T08:34:44.656Z,27.00
2018-08-22T08:35:46.985Z,26.90
2018-08-22T08:36:49.200Z,27.00
2018-08-22T08:37:51.413Z,27.00
2018-08-22T08:38:53.582Z,27.00
2018-08-22T08:39:55.758Z,27.00
2018-08-22T08:40:57.965Z,26.90
2018-08-22T08:42:00.186Z,26.90
2018-08-22T08:43:02.363Z,26.90
2018-08-22T08:44:04.570Z,26.90
2018-08-22T08:45:07.975Z,26.90
2018-08-22T08:46:10.298Z,27.00
2018-08-22T08:47:12.480Z,26.90
2018-08-22T08:48:14.657Z,26.90
2018-08-22T08:49:17.027Z,27.00
2018-08-22T08:50:19.185Z,27.00
2018-08-22T08:51:21.435Z,27.10
2018-08-22T08:52:23.622Z,27.10
2018-08-22T08:53:25.793Z,27.10
2018-08-22T08:54:28.513Z,27.20
2018-08-22T08:55:30.696Z,27.20
2018-08-22T08:56:32.910Z,27.30
2018-08-22T08:57:35.086Z,27.30
2018-08-22T08:58:37.282Z,27.40
2018-08-22T08:59:39.476Z,27.40
2018-08-22T09:00:41.652Z,27.50
2018-08-22T09:01:43.854Z,27.50
2018-08-22T09:02:46.053Z,27.60
2018-08-22T09:03:48.352Z,27.60
2018-08-22T09:04:50.497Z,27.60
2018-08-22T09:05:52.675Z,27.70
2018-08-22T09:06:54.854Z,27.70
2018-08-22T09:07:57.020Z,27.80
2018-08-22T09:08:59.211Z,27.80
2018-08-22T09:10:01.398Z,27.80
2018-08-22T09:11:03.676Z,27.80
2018-08-22T09:12:07.163Z,27.90
2018-08-22T09:13:10.633Z,27.90
2018-08-22T09:14:12.805Z,27.90
2018-08-22T09:15:15.056Z,27.90
2018-08-22T09:16:17.230Z,27.90
2018-08-22T09:17:19.477Z,27.90
2018-08-22T09:18:21.629Z,27.90
2018-08-22T09:19:23.811Z,27.90
2018-08-22T09:20:26.049Z,27.90
2018-08-22T09:21:28.286Z,27.90
2018-08-22T09:22:30.485Z,27.90
2018-08-22T09:23:32.698Z,28.00
2018-08-22T09:24:34.937Z,28.00
2018-08-22T09:25:37.107Z,28.00
2018-08-22T09:26:39.294Z,28.00
2018-08-22T09:27:41.501Z,28.00
2018-08-22T09:28:43.685Z,28.00
2018-08-22T09:29:45.869Z,28.00
2018-08-22T09:30:48.037Z,28.10
2018-08-22T09:31:50.229Z,28.20
2018-08-22T09:32:52.409Z,28.20
2018-08-22T09:33:54.600Z,28.20
2018-08-22T09:34:56.791Z,28.20
2018-08-22T09:35:58.981Z,28.30
2018-08-22T09:37:01.148Z,28.30
2018-08-22T09:38:03.521Z,28.30
2018-08-22T09:39:08.534Z,28.30
2018-08-22T09:40:10.727Z,28.40
2018-08-22T09:41:12.933Z,28.40
2018-08-22T09:42:15.131Z,28.40
2018-08-22T09:43:17.346Z,28.40
2018-08-22T09:44:19.567Z,28.50
2018-08-22T09:45:21.729Z,28.50
2018-08-22T09:46:23.930Z,28.50
2018-08-22T09:47:26.126Z,28.50
2018-08-22T09:48:28.297Z,28.60
2018-08-22T09:49:30.461Z,28.60
2018-08-22T09:50:32.676Z,28.60
2018-08-22T09:51:34.913Z,28.70
2018-08-22T09:52:37.114Z,28.70
2018-08-22T09:53:39.289Z,28.70
2018-08-22T09:54:54.853Z,28.70
2018-08-22T09:55:57.047Z,28.80
2018-08-22T09:56:59.254Z,28.80
2018-08-22T09:58:01.479Z,28.80
2018-08-22T09:59:03.661Z,28.80
2018-08-22T10:00:10.838Z,28.90
2018-08-22T10:01:18.686Z,28.90
2018-08-22T10:02:20.872Z,28.90
2018-08-22T10:03:23.036Z,28.90
2018-08-22T10:04:25.198Z,28.90
2018-08-22T10:05:27.353Z,29.00
2018-08-22T10:06:35.007Z,29.00
2018-08-22T10:07:37.047Z,29.00
2018-08-22T10:08:39.540Z,29.00
2018-08-22T10:09:41.726Z,29.00
2018-08-22T10:10:43.860Z,29.00
2018-08-22T10:11:46.066Z,29.10
2018-08-22T10:12:48.223Z,29.10
2018-08-22T10:13:50.393Z,29.10
2018-08-22T10:14:59.406Z,29.10
2018-08-22T10:16:02.159Z,29.20
2018-08-22T10:17:04.433Z,29.20
2018-08-22T10:18:06.642Z,29.20
2018-08-22T10:19:08.887Z,29.20
2018-08-22T10:20:11.041Z,29.30
2018-08-22T10:21:13.221Z,29.30
2018-08-22T10:22:15.393Z,29.30
2018-08-22T10:23:17.565Z,29.30
2018-08-22T10:24:19.731Z,29.40
2018-08-22T10:25:21.877Z,29.40
2018-08-22T10:26:24.230Z,29.40
2018-08-22T10:27:26.379Z,29.40
2018-08-22T10:28:28.591Z,29.50
2018-08-22T10:29:30.742Z,29.50
2018-08-22T10:30:32.907Z,29.50
2018-08-22T10:31:35.046Z,29.50
2018-08-22T10:32:37.197Z,29.60
2018-08-22T10:33:39.439Z,29.60
2018-08-22T10:34:41.610Z,29.60
2018-08-22T10:35:43.782Z,29.70
2018-08-22T10:36:45.940Z,29.70
2018-08-22T10:37:48.086Z,29.70
2018-08-22T10:38:50.272Z,29.70
2018-08-22T10:39:52.410Z,29.70
2018-08-22T10:40:54.622Z,29.80
2018-08-22T10:41:56.782Z,29.80
2018-08-22T10:42:58.913Z,29.80
2018-08-22T10:44:01.059Z,29.90
2018-08-22T10:45:03.262Z,29.90
2018-08-22T10:46:05.652Z,29.90
2018-08-22T10:47:07.821Z,29.90
2018-08-22T10:48:09.987Z,30.00
2018-08-22T10:49:12.157Z,30.00
2018-08-22T10:50:14.341Z,30.00
2018-08-22T10:51:16.529Z,30.10
2018-08-22T10:52:18.685Z,30.10
2018-08-22T10:53:20.842Z,30.10
2018-08-22T10:54:22.989Z,30.20
2018-08-22T10:55:25.141Z,30.20
2018-08-22T10:56:27.317Z,30.20
2018-08-22T10:57:29.509Z,30.20
2018-08-22T10:58:31.781Z,30.30
2018-08-22T10:59:33.922Z,30.30
2018-08-22T11:00:36.095Z,30.30
2018-08-22T11:01:38.249Z,30.40
2018-08-22T11:02:40.393Z,30.40
2018-08-22T11:03:42.555Z,30.40
2018-08-22T11:04:44.696Z,30.40
2018-08-22T11:05:46.849Z,30.50
2018-08-22T11:06:48.985Z,30.50
2018-08-22T11:07:51.319Z,30.60
2018-08-22T11:08:53.474Z,30.60
2018-08-22T11:09:55.614Z,30.70
2018-08-22T11:10:57.769Z,30.70
2018-08-22T11:11:59.906Z,30.70
2018-08-22T11:13:02.073Z,30.80
2018-08-22T11:14:04.229Z,30.80
2018-08-22T11:15:06.411Z,30.80
2018-08-22T11:16:08.664Z,30.80
2018-08-22T11:17:10.776Z,30.90
2018-08-22T11:18:12.994Z,30.90
2018-08-22T11:19:15.141Z,30.90
2018-08-22T11:20:17.317Z,30.90
2018-08-22T11:21:30.912Z,30.90
2018-08-22T11:22:44.529Z,31.00
2018-08-22T11:23:58.202Z,31.00
2018-08-22T11:25:11.877Z,31.00
2018-08-22T11:26:25.765Z,31.00
2018-08-22T11:27:39.387Z,31.00
2018-08-22T11:28:52.969Z,31.10
2018-08-22T11:30:06.801Z,31.10
2018-08-22T11:31:20.483Z,31.20
2018-08-22T11:32:34.004Z,31.20
2018-08-22T11:33:47.533Z,31.20
2018-08-22T11:34:50.353Z,31.30
2018-08-22T11:35:51.628Z,31.20
2018-08-22T11:37:04.240Z,31.30
2018-08-22T11:38:06.460Z,31.30
2018-08-22T11:39:08.681Z,31.40
2018-08-22T11:40:10.861Z,31.40
2018-08-22T11:41:13.037Z,31.40
2018-08-22T11:42:15.717Z,31.40
2018-08-22T11:43:18.222Z,31.40
2018-08-22T11:44:20.858Z,31.40
2018-08-22T11:45:30.306Z,31.40
2018-08-22T11:46:32.944Z,31.40
2018-08-22T11:47:35.961Z,31.40
2018-08-22T11:48:38.586Z,31.50
2018-08-22T11:49:41.657Z,31.50
2018-08-22T11:51:52.822Z,31.50
2018-08-22T11:52:54.960Z,31.50
2018-08-22T11:53:57.189Z,31.60
2018-08-22T11:54:59.337Z,31.60
2018-08-22T11:56:01.482Z,31.70
2018-08-22T11:57:03.689Z,31.60
2018-08-22T11:58:05.913Z,31.70
2018-08-22T11:59:08.062Z,31.60
2018-08-22T12:00:10.245Z,31.70
2018-08-22T12:01:13.311Z,31.70
2018-08-22T12:02:15.462Z,31.70
2018-08-22T12:03:17.622Z,31.70
2018-08-22T12:04:20.206Z,31.70
2018-08-22T12:05:22.355Z,31.70
2018-08-22T12:06:24.513Z,31.70
2018-08-22T12:07:26.671Z,31.60
2018-08-22T12:08:28.996Z,31.60
2018-08-22T12:09:31.165Z,31.60
2018-08-22T12:10:33.433Z,31.50
2018-08-22T12:11:35.561Z,31.50
2018-08-22T12:12:37.725Z,31.50
2018-08-22T12:13:40.177Z,31.50
2018-08-22T12:14:42.339Z,31.40
2018-08-22T12:15:44.573Z,31.50
2018-08-22T12:16:46.736Z,31.50
2018-08-22T12:17:48.911Z,31.50
2018-08-22T12:18:51.079Z,31.50
2018-08-22T12:21:02.210Z,31.50
2018-08-22T12:22:04.377Z,31.50
2018-08-22T12:23:06.552Z,31.60
2018-08-22T12:24:08.686Z,31.60
2018-08-22T12:25:10.898Z,31.70
2018-08-22T12:26:13.057Z,31.70
2018-08-22T12:27:15.296Z,31.80
2018-08-22T12:28:17.473Z,31.80
2018-08-22T12:29:19.928Z,31.70
2018-08-22T12:30:22.070Z,31.70
2018-08-22T12:31:24.246Z,31.80
2018-08-22T12:32:26.784Z,31.70
2018-08-22T12:33:29.247Z,31.70
2018-08-22T12:34:31.411Z,31.60
2018-08-22T12:35:33.778Z,31.60
2018-08-22T12:36:37.480Z,31.50
2018-08-22T12:37:39.661Z,31.50
2018-08-22T12:38:42.314Z,31.50
2018-08-22T12:39:44.503Z,31.50
2018-08-22T12:40:48.082Z,31.40
2018-08-22T12:41:50.237Z,31.40
2018-08-22T12:42:52.397Z,31.40
2018-08-22T12:43:54.926Z,31.40
2018-08-22T12:44:57.663Z,31.40
2018-08-22T12:46:00.208Z,31.40
2018-08-22T12:47:02.514Z,31.40
2018-08-22T12:48:04.890Z,31.40
2018-08-22T12:49:07.227Z,31.30
2018-08-22T12:50:10.227Z,31.40
2018-08-22T12:51:13.703Z,31.50
2018-08-22T12:52:16.127Z,31.50
2018-08-22T12:53:18.358Z,31.60
2018-08-22T12:54:20.654Z,31.60
2018-08-22T12:55:22.833Z,31.60
2018-08-22T12:56:25.541Z,31.60
2018-08-22T12:57:28.346Z,31.60
2018-08-22T12:58:30.673Z,31.60
2018-08-22T12:59:32.905Z,31.70
2018-08-22T13:00:35.355Z,31.60
2018-08-22T13:01:37.607Z,31.60
2018-08-22T13:02:40.654Z,31.60
2018-08-22T13:03:42.957Z,31.50
2018-08-22T13:04:45.287Z,31.60
2018-08-22T13:05:48.769Z,31.60
2018-08-22T13:06:50.936Z,31.50
2018-08-22T13:07:53.081Z,31.60
2018-08-22T13:08:55.250Z,31.60
2018-08-22T13:09:57.416Z,31.70
2018-08-22T13:10:59.585Z,31.70
2018-08-22T13:12:02.103Z,31.80
2018-08-22T13:13:04.297Z,32.00
2018-08-22T13:14:06.462Z,32.10
2018-08-22T13:15:09.283Z,32.20
2018-08-22T13:16:11.471Z,32.30
2018-08-22T13:17:13.960Z,32.30
2018-08-22T13:18:16.130Z,32.50
2018-08-22T13:19:18.286Z,32.70
2018-08-22T13:20:20.429Z,32.70
2018-08-22T13:21:22.633Z,32.80
2018-08-22T13:22:24.811Z,32.80
2018-08-22T13:23:26.969Z,32.70
2018-08-22T13:24:29.121Z,32.70
2018-08-22T13:25:31.273Z,32.70
2018-08-22T13:26:33.443Z,32.60
2018-08-22T13:27:35.597Z,32.60
2018-08-22T13:28:37.785Z,32.50